Time;durP1;ratioP1;P1;durP2;ratioP2;P2;SDS_P1;SDS_P2;PMS_P1;PMS_P2;Temp;Humidity;BMP_temperature;BMP_pressure;BME280_temperature;BME280_humidity;BME280_pressure;Samples;Min_cycle;Max_cycle;Signal;HPM_P1;HPM_P2
2022/05/31 00:01:44;;;;;;;3.00;2.33;;;15.20;56.70;;;;;;5054873;28;20283;-81
2022/05/31 00:04:10;;;;;;;2.70;2.50;;;15.10;57.70;;;;;;5073925;28;20185;-81
2022/05/31 00:06:36;;;;;;;2.83;2.53;;;14.90;58.10;;;;;;5076434;28;20199;-80
2022/05/31 00:09:02;;;;;;;2.40;2.20;;;14.80;58.70;;;;;;5054570;28;20267;-80
2022/05/31 00:11:28;;;;;;;3.10;2.37;;;14.90;58.80;;;;;;5077094;28;20222;-81
2022/05/31 00:13:53;;;;;;;2.40;2.20;;;15.00;58.70;;;;;;5053981;28;20195;-78
2022/05/31 00:16:19;;;;;;;2.27;2.17;;;15.00;58.30;;;;;;5073631;28;20188;-81
2022/05/31 00:18:45;;;;;;;3.00;2.70;;;15.00;58.20;;;;;;5075637;28;20174;-81
2022/05/31 00:21:11;;;;;;;2.60;2.30;;;15.00;58.30;;;;;;5073750;28;20219;-80
2022/05/31 00:23:40;;;;;;;2.23;2.03;;;14.90;57.70;;;;;;5073574;28;20190;-81
2022/05/31 00:26:05;;;;;;;2.63;2.40;;;14.60;58.30;;;;;;5058805;28;20187;-81
2022/05/31 00:28:31;;;;;;;2.60;2.40;;;14.70;58.30;;;;;;5073114;28;20195;-81
2022/05/31 00:30:57;;;;;;;2.23;2.03;;;14.60;58.20;;;;;;5071014;28;20206;-81
2022/05/31 00:33:24;;;;;;;2.37;2.17;;;14.60;58.70;;;;;;5072137;28;20233;-81
2022/05/31 00:35:51;;;;;;;3.70;2.47;;;14.40;59.10;;;;;;5077302;28;20726;-81
2022/05/31 00:38:17;;;;;;;2.90;2.43;;;14.40;59.70;;;;;;5076206;28;20181;-81
2022/05/31 00:40:43;;;;;;;2.70;2.37;;;14.30;60.10;;;;;;5070429;28;20806;-79
2022/05/31 00:43:12;;;;;;;2.50;2.07;;;14.50;59.90;;;;;;5062148;28;20227;-78
2022/05/31 00:45:54;;;;;;;2.57;2.23;;;14.40;59.50;;;;;;5074012;28;20193;-80
2022/05/31 00:48:27;;;;;;;2.27;2.17;;;14.10;61.10;;;;;;5072630;28;20202;-80
2022/05/31 00:51:01;;;;;;;3.43;2.40;;;14.20;60.80;;;;;;5071430;28;20199;-79
2022/05/31 00:53:34;;;;;;;2.40;2.20;;;14.10;61.10;;;;;;5076285;28;20187;-79
2022/05/31 00:56:04;;;;;;;3.33;2.37;;;14.00;61.50;;;;;;5055300;28;20189;-80
2022/05/31 00:58:41;;;;;;;3.20;2.10;;;14.00;61.30;;;;;;5076155;28;20671;-80
2022/05/31 01:01:11;;;;;;;2.60;2.40;;;14.10;61.60;;;;;;5070378;28;20269;-81
2022/05/31 01:03:39;;;;;;;4.37;2.50;;;14.10;61.40;;;;;;5074510;28;20844;-81
2022/05/31 01:06:06;;;;;;;2.53;2.33;;;14.00;61.50;;;;;;5055298;28;20180;-80
2022/05/31 01:08:34;;;;;;;2.57;2.30;;;14.00;61.80;;;;;;5071966;28;20690;-80
2022/05/31 01:11:01;;;;;;;2.70;2.50;;;13.80;62.30;;;;;;5076004;28;20203;-80
2022/05/31 01:13:28;;;;;;;4.03;2.43;;;13.80;62.60;;;;;;5068910;28;20188;-81
2022/05/31 01:16:06;;;;;;;3.67;2.30;;;13.80;62.80;;;;;;5076698;28;20193;-80
2022/05/31 01:18:33;;;;;;;2.80;2.60;;;13.60;63.50;;;;;;5076670;28;20180;-81
2022/05/31 01:21:00;;;;;;;2.10;2.00;;;13.70;62.80;;;;;;5070667;28;20292;-80
2022/05/31 01:23:30;;;;;;;2.60;2.40;;;13.80;62.60;;;;;;5074203;28;20602;-79
2022/05/31 01:26:29;;;;;;;4.80;2.63;;;13.70;62.60;;;;;;5075362;28;20194;-79
2022/05/31 01:29:18;;;;;;;2.77;2.57;;;13.60;63.50;;;;;;5070673;28;20186;-80
2022/05/31 01:32:01;;;;;;;2.40;2.10;;;13.50;64.70;;;;;;5074592;28;20203;-81
2022/05/31 01:34:37;;;;;;;2.70;2.50;;;13.60;63.70;;;;;;5076253;28;20179;-80
2022/05/31 01:37:05;;;;;;;2.60;2.40;;;13.70;63.30;;;;;;5071883;28;20196;-81
2022/05/31 01:39:41;;;;;;;3.33;2.40;;;13.60;63.80;;;;;;5058789;28;20260;-80
2022/05/31 01:42:21;;;;;;;2.57;2.10;;;13.50;63.90;;;;;;5073672;28;20732;-81
2022/05/31 01:44:52;;;;;;;2.33;2.13;;;13.50;64.10;;;;;;5074596;28;20277;-80
2022/05/31 01:47:18;;;;;;;4.43;2.60;;;13.70;63.20;;;;;;5061537;28;20188;-81
2022/05/31 01:49:49;;;;;;;3.60;2.40;;;13.90;62.50;;;;;;5077776;28;20283;-80
2022/05/31 01:52:15;;;;;;;2.83;2.47;;;14.00;61.40;;;;;;5072809;28;20195;-81
2022/05/31 01:54:41;;;;;;;2.53;2.30;;;13.80;62.00;;;;;;5070932;28;20249;-81
2022/05/31 01:57:11;;;;;;;2.77;2.20;;;13.80;62.20;;;;;;5074870;28;20200;-81
2022/05/31 01:59:41;;;;;;;2.97;2.30;;;13.90;62.40;;;;;;5076507;28;20228;-81
2022/05/31 02:02:08;;;;;;;2.53;2.37;;;13.80;62.30;;;;;;5078774;28;20195;-79
2022/05/31 02:04:34;;;;;;;2.97;2.50;;;13.70;62.70;;;;;;5073793;28;20278;-81
2022/05/31 02:07:11;;;;;;;2.93;2.70;;;13.60;63.50;;;;;;5059123;28;20187;-79
2022/05/31 02:09:39;;;;;;;2.53;2.33;;;13.30;64.20;;;;;;5056648;28;20192;-80
2022/05/31 02:12:09;;;;;;;2.70;2.50;;;13.40;64.70;;;;;;5076191;28;20195;-83
2022/05/31 02:14:35;;;;;;;2.80;2.60;;;13.50;64.00;;;;;;5075679;28;20195;-81
2022/05/31 02:17:01;;;;;;;4.40;2.57;;;13.30;64.90;;;;;;5074662;28;20327;-81
2022/05/31 02:19:28;;;;;;;2.90;2.63;;;13.30;65.00;;;;;;5071365;28;20242;-81
2022/05/31 02:21:56;;;;;;;3.00;2.63;;;13.30;64.50;;;;;;5073957;28;20203;-80
2022/05/31 02:24:23;;;;;;;2.50;2.30;;;13.30;64.70;;;;;;5061465;28;20277;-79
2022/05/31 02:26:49;;;;;;;2.73;2.50;;;13.20;64.70;;;;;;5082115;28;20181;-81
2022/05/31 02:29:18;;;;;;;2.97;2.77;;;13.30;64.40;;;;;;5072952;28;20189;-81
2022/05/31 02:31:45;;;;;;;2.73;2.53;;;13.20;64.20;;;;;;5068728;28;20672;-81
2022/05/31 02:34:14;;;;;;;2.60;2.37;;;13.20;64.60;;;;;;5071181;28;20193;-81
2022/05/31 02:36:40;;;;;;;2.70;2.50;;;13.10;65.30;;;;;;5073191;28;20181;-82
2022/05/31 02:39:06;;;;;;;2.73;2.30;;;13.10;65.30;;;;;;5077746;28;20244;-80
2022/05/31 02:41:32;;;;;;;3.37;2.33;;;13.10;65.30;;;;;;5082791;28;20196;-79
2022/05/31 02:43:58;;;;;;;2.60;2.40;;;13.10;64.80;;;;;;5074283;28;20188;-80
2022/05/31 02:46:25;;;;;;;2.73;2.10;;;13.20;64.80;;;;;;5078435;28;20212;-79
2022/05/31 02:48:51;;;;;;;2.60;2.40;;;13.20;64.40;;;;;;5066806;28;20182;-81
2022/05/31 02:51:17;;;;;;;2.83;2.50;;;13.50;63.70;;;;;;5055520;28;20297;-80
2022/05/31 02:53:43;;;;;;;2.03;1.93;;;13.50;63.40;;;;;;5073712;28;20195;-79
2022/05/31 02:56:09;;;;;;;2.50;2.30;;;13.60;62.70;;;;;;5078356;28;20237;-81
2022/05/31 02:58:35;;;;;;;2.47;2.27;;;13.70;62.00;;;;;;5073868;28;20199;-80
2022/05/31 03:01:01;;;;;;;2.60;2.40;;;13.60;62.60;;;;;;5081030;28;20365;-80
2022/05/31 03:03:27;;;;;;;2.50;2.30;;;13.40;63.40;;;;;;5074037;28;20196;-79
2022/05/31 03:05:53;;;;;;;3.43;2.33;;;13.40;63.30;;;;;;5073869;28;20557;-81
2022/05/31 03:08:19;;;;;;;3.77;2.60;;;13.40;63.00;;;;;;5060784;28;20198;-79
2022/05/31 03:10:54;;;;;;;2.50;2.30;;;13.40;63.50;;;;;;5077295;28;20214;-78
2022/05/31 03:13:23;;;;;;;2.50;2.30;;;13.20;63.70;;;;;;5083658;28;20183;-80
2022/05/31 03:15:52;;;;;;;4.00;2.50;;;13.20;64.10;;;;;;5075505;28;20221;-80
2022/05/31 03:18:22;;;;;;;2.73;2.50;;;13.20;63.70;;;;;;5056732;28;20194;-81
2022/05/31 03:20:51;;;;;;;3.20;2.40;;;13.30;63.60;;;;;;5071880;28;20216;-81
2022/05/31 03:23:31;;;;;;;2.60;2.40;;;13.40;63.20;;;;;;5079804;28;20274;-81
2022/05/31 03:26:00;;;;;;;3.37;2.50;;;13.60;62.80;;;;;;5077162;28;20191;-81
2022/05/31 03:28:27;;;;;;;2.57;2.37;;;13.80;61.70;;;;;;5076252;28;20191;-79
2022/05/31 03:30:52;;;;;;;3.00;2.80;;;13.90;61.10;;;;;;5058983;28;20208;-80
2022/05/31 03:33:18;;;;;;;2.10;2.00;;;14.00;60.60;;;;;;5057483;28;20189;-80
2022/05/31 03:35:44;;;;;;;2.73;2.30;;;14.00;60.80;;;;;;5069194;28;20201;-79
2022/05/31 03:38:10;;;;;;;2.33;2.23;;;13.80;61.70;;;;;;5073229;28;20267;-80
2022/05/31 03:43:20;;;;;;;3.90;2.43;;;13.60;62.70;;;;;;5071022;28;20715;-81
2022/05/31 03:45:46;;;;;;;2.57;2.37;;;13.50;62.60;;;;;;5076303;28;20192;-81
2022/05/31 03:48:12;;;;;;;2.47;2.27;;;13.40;62.70;;;;;;5073383;28;20185;-80
2022/05/31 03:50:39;;;;;;;2.40;2.20;;;13.30;63.10;;;;;;5076802;28;20261;-81
2022/05/31 03:53:10;;;;;;;2.80;2.50;;;13.40;62.70;;;;;;5076797;28;20213;-80
2022/05/31 03:55:41;;;;;;;2.67;2.40;;;13.20;64.00;;;;;;5070212;28;20215;-81
2022/05/31 03:58:08;;;;;;;2.70;2.47;;;13.10;64.30;;;;;;5062626;28;20580;-80
2022/05/31 04:00:33;;;;;;;3.03;2.43;;;12.90;65.50;;;;;;5076304;28;20217;-79
2022/05/31 04:02:59;;;;;;;3.17;2.80;;;12.80;65.30;;;;;;5080187;28;20242;-79
2022/05/31 04:05:25;;;;;;;2.57;2.37;;;12.80;66.00;;;;;;5073042;28;20270;-79
2022/05/31 04:07:52;;;;;;;2.77;2.57;;;12.80;66.60;;;;;;5076944;28;20731;-80
2022/05/31 04:10:18;;;;;;;2.73;2.50;;;12.80;66.20;;;;;;5080020;28;20219;-80
2022/05/31 04:12:43;;;;;;;4.50;2.40;;;13.00;65.40;;;;;;5073463;28;20248;-78
2022/05/31 04:15:09;;;;;;;4.27;2.67;;;13.20;64.70;;;;;;5075044;28;20180;-80
2022/05/31 04:17:35;;;;;;;2.70;2.50;;;13.20;64.80;;;;;;5057442;28;20697;-80
2022/05/31 04:20:01;;;;;;;2.73;2.40;;;13.10;65.10;;;;;;5076723;28;20222;-79
2022/05/31 04:22:27;;;;;;;2.50;2.30;;;13.00;65.90;;;;;;5040253;28;20188;-81
2022/05/31 04:24:54;;;;;;;3.23;2.47;;;13.00;66.20;;;;;;5057264;28;20300;-80
2022/05/31 04:27:21;;;;;;;2.70;2.50;;;13.00;66.30;;;;;;5077474;28;20209;-80
2022/05/31 04:29:47;;;;;;;3.00;2.67;;;12.60;68.10;;;;;;5071524;28;20197;-80
2022/05/31 04:32:14;;;;;;;2.83;2.30;;;12.60;68.40;;;;;;5073592;28;20679;-80
2022/05/31 04:34:41;;;;;;;2.93;2.67;;;12.50;69.20;;;;;;5071916;28;20210;-80
2022/05/31 04:37:07;;;;;;;3.03;2.33;;;12.50;69.00;;;;;;5075342;28;20198;-80
2022/05/31 04:39:32;;;;;;;2.73;2.43;;;12.70;68.60;;;;;;5074553;28;20202;-80
2022/05/31 04:41:58;;;;;;;4.50;3.00;;;12.90;67.70;;;;;;5072705;28;20650;-80
2022/05/31 04:44:24;;;;;;;3.23;2.60;;;13.00;66.70;;;;;;5069802;28;20592;-80
2022/05/31 04:46:50;;;;;;;2.87;2.67;;;12.90;67.10;;;;;;5074795;28;20190;-79
2022/05/31 04:49:16;;;;;;;2.83;2.53;;;12.70;68.00;;;;;;5074847;28;20186;-80
2022/05/31 04:51:43;;;;;;;2.63;2.43;;;12.90;67.70;;;;;;5072266;28;20297;-79
2022/05/31 04:54:09;;;;;;;2.60;2.40;;;13.20;67.00;;;;;;5073792;28;20180;-79
2022/05/31 04:56:35;;;;;;;4.10;2.97;;;13.30;65.60;;;;;;5072138;28;20731;-79
2022/05/31 04:59:02;;;;;;;2.70;2.50;;;13.30;65.70;;;;;;5055787;28;20206;-81
2022/05/31 05:01:28;;;;;;;2.97;2.67;;;13.20;66.40;;;;;;5074271;28;20231;-80
2022/05/31 05:03:54;;;;;;;3.17;2.87;;;13.20;66.30;;;;;;5074707;28;20191;-79
2022/05/31 05:06:21;;;;;;;8.13;3.10;;;13.10;66.70;;;;;;5085870;28;20209;-80
2022/05/31 05:08:48;;;;;;;2.80;2.60;;;13.30;67.00;;;;;;5069570;28;20294;-81
2022/05/31 05:11:19;;;;;;;2.90;2.60;;;13.40;66.20;;;;;;5074270;28;20203;-81
2022/05/31 05:13:46;;;;;;;3.63;2.83;;;13.50;65.20;;;;;;5068436;28;20181;-80
2022/05/31 05:16:13;;;;;;;3.20;2.90;;;13.60;64.70;;;;;;5078146;28;20183;-80
2022/05/31 05:18:39;;;;;;;4.03;2.73;;;13.60;64.50;;;;;;5080859;28;20274;-79
2022/05/31 05:21:08;;;;;;;3.80;2.83;;;13.60;64.30;;;;;;5074955;28;20659;-81
2022/05/31 05:23:34;;;;;;;3.73;2.90;;;13.40;65.70;;;;;;5075659;28;20621;-81
2022/05/31 05:26:01;;;;;;;2.60;2.40;;;13.50;65.10;;;;;;5076414;28;20190;-81
2022/05/31 05:31:27;;;;;;;3.10;2.90;;;13.80;63.90;;;;;;5075469;28;20219;-81
2022/05/31 05:33:53;;;;;;;3.53;3.20;;;13.80;63.20;;;;;;5077343;28;20227;-81
2022/05/31 05:36:20;;;;;;;3.63;2.67;;;13.70;63.80;;;;;;5071492;28;20567;-79
2022/05/31 05:38:46;;;;;;;3.70;3.10;;;13.60;64.50;;;;;;5076485;28;20183;-80
2022/05/31 05:41:12;;;;;;;3.00;2.70;;;13.80;63.90;;;;;;5080297;28;20226;-81
2022/05/31 05:43:40;;;;;;;5.40;2.90;;;13.80;63.60;;;;;;5072719;28;20212;-78
2022/05/31 05:46:15;;;;;;;4.70;3.07;;;13.90;64.30;;;;;;5074891;28;20231;-80
2022/05/31 05:48:42;;;;;;;2.87;2.67;;;14.00;63.90;;;;;;5076238;28;20606;-80
2022/05/31 05:51:29;;;;;;;3.37;2.73;;;14.10;62.70;;;;;;5076519;28;20679;-79
2022/05/31 05:53:56;;;;;;;3.50;3.13;;;14.40;62.30;;;;;;5071236;28;20325;-80
2022/05/31 05:56:22;;;;;;;3.70;3.00;;;14.50;62.70;;;;;;5075205;28;20194;-80
2022/05/31 05:58:48;;;;;;;3.20;2.90;;;14.50;62.30;;;;;;5039610;28;20200;-79
2022/05/31 06:01:35;;;;;;;3.77;3.10;;;14.60;62.80;;;;;;5079596;28;20208;-79
2022/05/31 06:04:13;;;;;;;3.50;2.70;;;14.70;61.90;;;;;;5071876;28;20191;-80
2022/05/31 06:06:42;;;;;;;5.97;2.90;;;14.90;61.90;;;;;;5073681;28;20803;-80
2022/05/31 06:09:22;;;;;;;5.77;3.13;;;14.80;61.90;;;;;;5060927;28;20192;-80
2022/05/31 06:11:53;;;;;;;2.90;2.70;;;14.90;62.00;;;;;;5079977;28;20213;-79
2022/05/31 06:14:39;;;;;;;2.90;2.70;;;14.80;61.30;;;;;;5075090;28;20245;-80
2022/05/31 06:17:11;;;;;;;3.13;2.93;;;14.90;61.20;;;;;;5054009;28;20194;-80
2022/05/31 06:19:39;;;;;;;3.40;3.00;;;14.90;61.40;;;;;;5067144;28;20211;-78
2022/05/31 06:22:06;;;;;;;4.63;3.27;;;14.90;60.90;;;;;;5071724;28;20255;-80
2022/05/31 06:24:34;;;;;;;3.20;2.80;;;15.00;60.40;;;;;;5073153;28;20202;-79
2022/05/31 06:27:00;;;;;;;6.33;3.00;;;15.00;60.70;;;;;;5071023;28;20215;-80
2022/05/31 06:29:27;;;;;;;3.10;2.90;;;15.10;59.50;;;;;;5055050;28;20256;-80
2022/05/31 06:31:53;;;;;;;5.00;3.13;;;15.10;58.50;;;;;;5074935;28;20210;-80
2022/05/31 06:34:19;;;;;;;3.40;3.10;;;15.20;59.10;;;;;;5078341;28;20218;-79
2022/05/31 06:36:45;;;;;;;5.20;2.93;;;15.30;58.80;;;;;;5080969;28;20240;-80
2022/05/31 06:39:11;;;;;;;5.73;3.47;;;15.30;58.90;;;;;;5092694;28;20362;-81
2022/05/31 06:41:37;;;;;;;10.87;9.77;;;15.30;58.50;;;;;;5060580;28;20220;-81
2022/05/31 06:44:04;;;;;;;4.03;3.10;;;15.40;57.90;;;;;;5079782;28;20199;-80
2022/05/31 06:46:30;;;;;;;3.83;2.70;;;15.50;58.10;;;;;;5074931;28;20192;-79
2022/05/31 06:48:57;;;;;;;4.47;3.00;;;15.70;57.20;;;;;;5078652;28;20182;-79
2022/05/31 06:56:55;;;;;;;5.67;2.53;;;15.50;55.50;;;;;;5081515;28;20218;-80
2022/05/31 06:59:21;;;;;;;2.80;2.60;;;15.70;54.80;;;;;;5061983;28;20193;-79
2022/05/31 07:01:48;;;;;;;3.27;2.97;;;15.80;55.30;;;;;;5079412;28;20219;-79
2022/05/31 07:04:14;;;;;;;5.27;2.80;;;15.80;55.80;;;;;;5076200;28;20192;-79
2022/05/31 07:06:40;;;;;;;3.23;2.90;;;15.80;55.30;;;;;;5076974;28;20183;-78
2022/05/31 07:09:06;;;;;;;3.67;2.83;;;16.00;54.40;;;;;;5075872;28;20260;-81
2022/05/31 07:11:32;;;;;;;4.20;3.17;;;16.00;55.20;;;;;;5078021;28;20302;-82
2022/05/31 07:13:59;;;;;;;4.63;2.97;;;16.10;55.10;;;;;;5078482;28;20203;-82
2022/05/31 07:16:25;;;;;;;3.57;2.90;;;15.90;54.70;;;;;;5077130;28;20203;-81
2022/05/31 07:18:51;;;;;;;3.40;2.90;;;15.70;55.40;;;;;;5076905;28;20204;-81
2022/05/31 07:21:16;;;;;;;3.33;2.67;;;15.80;55.90;;;;;;5075525;28;20235;-81
2022/05/31 07:23:42;;;;;;;3.13;2.87;;;15.90;55.80;;;;;;5078638;28;20201;-82
2022/05/31 07:26:09;;;;;;;3.57;2.90;;;15.90;55.60;;;;;;5077679;28;20224;-82
2022/05/31 07:28:35;;;;;;;4.00;3.00;;;16.10;56.20;;;;;;5078022;28;20226;-80
2022/05/31 07:31:01;;;;;;;3.10;2.80;;;16.20;54.80;;;;;;5078462;28;20222;-80
2022/05/31 07:33:26;;;;;;;2.70;2.50;;;16.00;55.10;;;;;;5076827;28;20202;-82
2022/05/31 07:35:52;;;;;;;2.70;2.50;;;16.20;54.90;;;;;;5077208;28;20676;-82
2022/05/31 07:38:20;;;;;;;5.10;2.83;;;16.50;53.90;;;;;;5078032;28;20197;-82
2022/05/31 07:40:49;;;;;;;3.60;3.10;;;16.90;53.20;;;;;;5076445;28;20713;-79
2022/05/31 07:43:16;;;;;;;3.73;3.23;;;17.00;53.20;;;;;;5078192;28;20190;-83
2022/05/31 07:45:41;;;;;;;3.50;3.20;;;16.90;53.60;;;;;;5077590;28;20194;-80
2022/05/31 07:48:08;;;;;;;3.60;3.30;;;16.50;55.40;;;;;;5077882;28;20194;-81
2022/05/31 07:50:34;;;;;;;4.10;3.67;;;16.70;55.60;;;;;;5060698;28;20215;-80
2022/05/31 07:53:01;;;;;;;4.30;2.93;;;16.40;56.60;;;;;;5077477;28;20188;-80
2022/05/31 07:55:28;;;;;;;3.77;3.47;;;16.40;58.60;;;;;;5076262;28;20661;-80
2022/05/31 08:00:40;;;;;;;3.27;2.97;;;16.80;56.60;;;;;;5079504;28;20224;-79
2022/05/31 08:03:08;;;;;;;4.73;3.00;;;16.80;55.50;;;;;;5080170;28;20183;-79
2022/05/31 08:05:37;;;;;;;8.97;3.47;;;16.80;55.70;;;;;;5076004;28;20201;-80
2022/05/31 08:08:03;;;;;;;3.77;3.03;;;16.80;57.60;;;;;;5074333;28;20187;-80
2022/05/31 08:10:29;;;;;;;3.87;2.93;;;17.00;57.20;;;;;;5076981;28;20239;-80
2022/05/31 08:12:55;;;;;;;3.17;2.87;;;17.20;55.00;;;;;;5077286;28;20885;-80
2022/05/31 08:15:20;;;;;;;3.70;3.20;;;17.20;55.90;;;;;;5076941;28;20255;-80
2022/05/31 08:17:46;;;;;;;3.77;2.97;;;17.30;55.10;;;;;;5077410;28;20238;-81
2022/05/31 08:20:13;;;;;;;4.13;2.83;;;17.40;54.20;;;;;;5058524;28;20225;-83
2022/05/31 08:22:39;;;;;;;3.63;3.27;;;17.60;54.50;;;;;;5078110;28;20186;-80
2022/05/31 08:25:06;;;;;;;8.30;3.28;;;17.90;53.10;;;;;;5076197;28;20197;-80
2022/05/31 08:27:34;;;;;;;3.58;2.88;;;18.10;52.90;;;;;;5057706;28;20189;-81
2022/05/31 08:30:01;;;;;;;3.90;3.20;;;18.20;52.60;;;;;;5077060;28;20230;-81
2022/05/31 08:32:27;;;;;;;4.25;3.13;;;18.20;52.40;;;;;;5058866;28;20198;-80
2022/05/31 08:34:52;;;;;;;6.78;2.83;;;18.40;51.90;;;;;;5082172;28;20198;-79
2022/05/31 08:37:18;;;;;;;4.05;2.90;;;18.70;50.90;;;;;;5083761;28;20230;-81
2022/05/31 08:39:44;;;;;;;3.38;2.92;;;18.70;51.10;;;;;;5059820;28;20213;-81
2022/05/31 08:42:15;;;;;;;4.38;3.70;;;18.90;50.20;;;;;;5077789;28;20199;-80
2022/05/31 08:45:06;;;;;;;3.22;2.90;;;18.90;50.50;;;;;;5077219;28;20190;-81
2022/05/31 08:47:46;;;;;;;3.90;3.35;;;18.90;51.30;;;;;;5071447;28;20253;-81
2022/05/31 08:53:26;;;;;;;4.55;3.30;;;18.90;49.90;;;;;;5083793;28;20179;-81
2022/05/31 08:59:00;;;;;;;6.72;3.30;;;18.60;50.50;;;;;;5078567;28;20218;-81
2022/05/31 09:01:31;;;;;;;3.88;2.80;;;18.60;51.00;;;;;;5062762;28;20215;-80
2022/05/31 09:04:10;;;;;;;3.22;2.90;;;18.80;51.30;;;;;;5063439;28;20217;-81
2022/05/31 09:07:03;;;;;;;3.15;2.85;;;19.30;47.70;;;;;;5075646;28;20176;-81
2022/05/31 09:10:04;;;;;;;4.35;2.97;;;19.70;46.70;;;;;;5078709;28;20179;-81
2022/05/31 09:12:43;;;;;;;5.25;3.63;;;19.90;44.80;;;;;;5035982;28;20383;-81
2022/05/31 09:15:15;;;;;;;3.85;2.83;;;20.10;45.60;;;;;;5073507;28;20185;-81
2022/05/31 09:18:16;;;;;;;4.57;3.50;;;20.10;45.80;;;;;;5078166;28;20183;-80
2022/05/31 09:20:53;;;;;;;3.17;2.88;;;20.10;44.50;;;;;;5076742;28;20214;-81
2022/05/31 09:23:29;;;;;;;3.30;2.72;;;20.20;44.70;;;;;;5080438;28;20246;-81
2022/05/31 09:26:33;;;;;;;3.30;3.00;;;20.20;45.20;;;;;;5078145;28;20186;-81
2022/05/31 09:29:16;;;;;;;3.85;2.83;;;20.50;44.20;;;;;;5079394;28;20252;-81
2022/05/31 09:32:03;;;;;;;3.00;2.80;;;20.70;44.90;;;;;;5077407;28;20544;-81
2022/05/31 09:35:10;;;;;;;3.75;2.72;;;21.00;44.00;;;;;;5079421;28;20242;-80
2022/05/31 09:37:54;;;;;;;3.00;2.70;;;21.00;43.60;;;;;;5078217;28;20198;-81
2022/05/31 09:40:42;;;;;;;5.93;2.88;;;20.90;44.10;;;;;;5078757;28;20588;-82
2022/05/31 09:43:26;;;;;;;3.08;2.75;;;21.30;42.20;;;;;;5080072;28;20180;-81
2022/05/31 09:46:02;;;;;;;4.00;2.95;;;21.60;42.70;;;;;;5077612;28;20198;-81
2022/05/31 09:48:27;;;;;;;3.15;2.85;;;21.80;40.70;;;;;;5081625;28;20209;-83
2022/05/31 09:51:18;;;;;;;5.70;2.90;;;22.00;40.40;;;;;;5080051;28;20215;-81
2022/05/31 09:59:23;;;;;;;3.28;2.97;;;21.80;39.70;;;;;;5074865;28;20202;-80
2022/05/31 10:01:49;;;;;;;7.32;2.97;;;22.00;39.20;;;;;;5077854;28;20260;-81
2022/05/31 10:04:27;;;;;;;3.28;2.97;;;22.30;39.40;;;;;;5076369;28;20184;-81
2022/05/31 10:06:54;;;;;;;3.25;2.55;;;22.60;39.30;;;;;;5056234;28;20251;-81
2022/05/31 10:09:23;;;;;;;3.00;2.70;;;23.00;37.20;;;;;;5077722;28;20176;-81
2022/05/31 10:11:49;;;;;;;4.80;2.78;;;23.40;36.10;;;;;;5074769;28;20690;-82
2022/05/31 10:14:23;;;;;;;3.72;3.33;;;23.20;36.70;;;;;;5076815;28;20658;-82
2022/05/31 10:16:49;;;;;;;3.13;2.70;;;23.20;36.20;;;;;;5074915;28;20236;-80
2022/05/31 10:19:29;;;;;;;2.85;2.65;;;23.20;35.10;;;;;;5076652;28;20194;-82
2022/05/31 10:21:56;;;;;;;4.85;2.80;;;23.20;33.90;;;;;;5076869;28;20203;-81
2022/05/31 10:24:27;;;;;;;4.03;2.67;;;22.90;35.70;;;;;;5078020;28;20179;-80
2022/05/31 10:27:05;;;;;;;2.90;2.70;;;22.90;35.20;;;;;;5078147;28;20235;-81
2022/05/31 10:29:40;;;;;;;4.32;2.60;;;23.10;34.60;;;;;;5078491;28;20251;-82
2022/05/31 10:32:40;;;;;;;5.40;2.95;;;23.20;33.30;;;;;;5061024;28;20183;-82
2022/05/31 10:35:09;;;;;;;3.00;2.70;;;23.20;33.60;;;;;;5082931;28;20195;-81
2022/05/31 10:37:35;;;;;;;5.38;2.92;;;23.20;34.10;;;;;;5074958;28;20180;-80
2022/05/31 10:40:09;;;;;;;3.25;2.78;;;23.30;34.40;;;;;;5077412;28;20244;-79
2022/05/31 10:42:41;;;;;;;4.72;2.80;;;23.40;34.20;;;;;;5074464;28;20182;-81
2022/05/31 10:45:08;;;;;;;5.47;2.90;;;23.60;34.90;;;;;;5071779;28;20172;-82
2022/05/31 10:47:34;;;;;;;4.47;2.80;;;23.50;35.10;;;;;;5081762;28;20187;-82
2022/05/31 10:50:02;;;;;;;3.50;2.80;;;23.60;32.80;;;;;;5081916;28;20235;-82
2022/05/31 10:52:52;;;;;;;3.90;2.65;;;23.70;32.60;;;;;;5074441;28;20214;-81
2022/05/31 10:55:41;;;;;;;4.68;2.80;;;23.80;33.30;;;;;;5074084;28;20210;-81
2022/05/31 10:58:40;;;;;;;4.20;3.28;;;23.80;32.80;;;;;;5055778;28;20567;-81
2022/05/31 11:01:15;;;;;;;3.40;3.00;;;24.10;33.60;;;;;;5073054;28;20219;-81
2022/05/31 11:04:18;;;;;;;6.68;2.97;;;24.20;33.20;;;;;;5057291;28;20280;-79
2022/05/31 11:07:05;;;;;;;3.20;2.90;;;24.40;32.90;;;;;;5073706;28;20195;-82
2022/05/31 11:13:31;;;;;;;3.83;2.80;;;25.20;31.00;;;;;;5048557;28;20279;-81
2022/05/31 11:16:03;;;;;;;3.92;2.80;;;25.60;29.00;;;;;;5073856;28;20186;-81
2022/05/31 11:18:59;;;;;;;2.75;2.55;;;25.60;31.20;;;;;;5073248;28;20271;-82
2022/05/31 11:21:39;;;;;;;3.22;2.55;;;25.60;29.50;;;;;;5072223;28;20261;-81
2022/05/31 11:24:14;;;;;;;3.03;2.53;;;25.90;26.40;;;;;;5072478;28;20175;-81
2022/05/31 11:27:10;;;;;;;4.32;3.22;;;25.70;27.80;;;;;;5072332;28;20187;-80
2022/05/31 11:29:54;;;;;;;2.92;2.58;;;25.20;28.40;;;;;;5075539;28;20319;-79
2022/05/31 11:32:41;;;;;;;3.13;2.75;;;24.70;28.10;;;;;;5073631;28;20195;-81
2022/05/31 11:35:25;;;;;;;3.08;2.78;;;24.50;30.60;;;;;;5073363;28;20589;-81
2022/05/31 11:38:09;;;;;;;3.70;2.17;;;24.90;29.10;;;;;;5074122;28;20198;-81
2022/05/31 11:40:56;;;;;;;5.68;2.83;;;25.10;28.60;;;;;;5074898;28;20264;-81
2022/05/31 11:43:41;;;;;;;3.40;2.38;;;25.20;28.50;;;;;;5073306;28;20176;-81
2022/05/31 11:46:10;;;;;;;3.85;2.83;;;25.30;29.50;;;;;;5071931;28;20179;-80
2022/05/31 11:48:42;;;;;;;3.70;3.40;;;25.40;29.20;;;;;;5081332;28;20183;-78
2022/05/31 11:51:23;;;;;;;8.95;2.85;;;25.60;28.80;;;;;;5086340;28;20237;-78
2022/05/31 11:54:23;;;;;;;2.95;2.75;;;25.80;27.90;;;;;;5079481;28;20183;-80
2022/05/31 11:57:04;;;;;;;2.47;2.30;;;26.70;27.40;;;;;;5077429;28;20194;-81
2022/05/31 11:59:30;;;;;;;2.95;2.75;;;27.30;26.40;;;;;;5077471;28;20258;-80
2022/05/31 12:02:10;;;;;;;3.20;2.60;;;27.70;27.50;;;;;;5078263;28;20234;-81
2022/05/31 12:04:46;;;;;;;2.65;2.50;;;27.70;26.60;;;;;;5074082;28;20180;-78
2022/05/31 12:07:56;;;;;;;7.70;3.25;;;27.70;26.80;;;;;;5073800;28;20250;-81
2022/05/31 12:10:27;;;;;;;3.25;2.80;;;27.60;27.40;;;;;;5075602;28;20195;-79
2022/05/31 12:12:57;;;;;;;3.10;2.80;;;27.50;26.60;;;;;;5076614;28;20180;-82
2022/05/31 12:15:29;;;;;;;6.60;2.85;;;27.10;26.90;;;;;;5075922;28;20190;-81
2022/05/31 12:18:08;;;;;;;6.22;2.78;;;27.40;26.50;;;;;;5077446;28;20188;-82
2022/05/31 12:20:38;;;;;;;3.72;2.63;;;27.00;27.10;;;;;;5078425;28;20229;-80
2022/05/31 12:23:14;;;;;;;3.17;2.67;;;26.60;27.70;;;;;;5078330;28;20180;-81
2022/05/31 12:25:54;;;;;;;4.45;2.53;;;26.30;26.50;;;;;;5077441;28;20207;-80
2022/05/31 12:28:25;;;;;;;3.35;3.00;;;26.90;26.60;;;;;;5075593;28;20198;-82
2022/05/31 12:31:04;;;;;;;2.88;2.67;;;27.20;26.20;;;;;;5081060;28;20223;-84
2022/05/31 12:33:47;;;;;;;3.65;2.60;;;27.40;25.90;;;;;;5079101;28;20187;-82
2022/05/31 12:36:18;;;;;;;3.40;3.10;;;27.40;26.00;;;;;;5076651;28;20186;-82
2022/05/31 12:38:54;;;;;;;2.83;2.63;;;27.30;25.90;;;;;;5076160;28;20597;-82
2022/05/31 12:41:40;;;;;;;2.80;2.60;;;27.30;26.50;;;;;;5087412;28;20203;-81
2022/05/31 12:44:11;;;;;;;3.17;2.88;;;27.00;26.50;;;;;;5078880;28;20175;-81
2022/05/31 12:46:40;;;;;;;3.03;2.22;;;26.80;26.20;;;;;;5078706;28;20172;-81
2022/05/31 12:49:19;;;;;;;2.95;2.75;;;27.40;26.70;;;;;;5079411;28;20326;-79
2022/05/31 12:52:07;;;;;;;3.45;2.90;;;28.20;25.80;;;;;;5082901;28;20203;-82
2022/05/31 12:54:48;;;;;;;4.07;3.08;;;29.10;25.10;;;;;;5070329;28;20195;-80
2022/05/31 12:57:22;;;;;;;3.72;3.13;;;28.80;24.50;;;;;;5080483;28;20258;-82
2022/05/31 12:59:50;;;;;;;3.08;2.78;;;29.20;25.20;;;;;;5082128;28;20209;-81
2022/05/31 13:02:29;;;;;;;5.65;3.25;;;29.20;25.60;;;;;;5062839;28;20191;-81
2022/05/31 13:04:58;;;;;;;4.35;2.97;;;29.30;25.40;;;;;;5078719;28;20171;-81
2022/05/31 13:07:41;;;;;;;3.42;2.90;;;29.00;24.40;;;;;;5053677;28;20202;-80
2022/05/31 13:10:28;;;;;;;3.85;3.20;;;27.80;25.70;;;;;;5074026;28;20218;-82
2022/05/31 13:21:14;;;;;;;5.90;3.17;;;27.50;26.20;;;;;;5076049;28;20226;-81
2022/05/31 13:23:41;;;;;;;4.25;3.30;;;27.70;26.20;;;;;;5076960;28;20208;-82
2022/05/31 13:26:13;;;;;;;4.13;2.80;;;28.20;25.70;;;;;;5061573;28;20198;-82
2022/05/31 13:28:50;;;;;;;4.93;3.05;;;28.50;25.60;;;;;;5078783;28;20187;-81
2022/05/31 13:31:23;;;;;;;4.97;2.90;;;28.90;24.30;;;;;;5059560;28;20218;-82
2022/05/31 13:34:00;;;;;;;5.22;3.55;;;29.30;25.50;;;;;;5076334;28;20199;-81
2022/05/31 13:36:29;;;;;;;4.63;3.17;;;29.00;25.90;;;;;;5080128;28;20201;-82
2022/05/31 13:39:09;;;;;;;5.15;3.75;;;28.40;26.20;;;;;;5081032;28;20179;-82
2022/05/31 13:41:50;;;;;;;3.25;2.92;;;28.10;25.90;;;;;;5083339;28;20978;-79
2022/05/31 13:44:22;;;;;;;3.47;3.03;;;27.30;25.90;;;;;;5063728;28;20183;-80
2022/05/31 13:46:49;;;;;;;3.55;3.25;;;28.00;25.50;;;;;;5061092;28;20192;-81
2022/05/31 13:49:42;;;;;;;4.68;3.03;;;28.20;25.40;;;;;;5086252;28;20221;-80